Terminal Aerodrome Forecast
Issued by NWS Albany, NY

Home | Current Version | Previous Version | Text Only | Print | Product List | Glossary On
Versions: 1 2 3 4 5 6 7 8 9 10 11 12 13 14 15 16 17 18 19
000
FTUS41 KALY 181900 AAA
TAFALB
TAF AMD
KALB 181938Z 1820/1918 31008G14KT P6SM VCSH BKN045
     FM182300 32007KT P6SM BKN045
     FM190100 34005KT P6SM SCT040
     FM190600 36003KT P6SM SKC
     FM191300 05005KT P6SM SKC=

USA.gov is the U.S. government's official web portal to all federal, state and local government web resources and services.